sensor_id;sensor_type;location;lat;lon;timestamp;temperature;humidity
56753;DHT22;42627;42.646;23.642;2022-08-30T00:00:16;18.70;99.90
56753;DHT22;42627;42.646;23.642;2022-08-30T00:02:36;18.60;99.90
56753;DHT22;42627;42.646;23.642;2022-08-30T00:04:36;18.70;99.90
56753;DHT22;42627;42.646;23.642;2022-08-30T00:06:38;18.70;99.90
56753;DHT22;42627;42.646;23.642;2022-08-30T00:08:40;18.70;99.90
56753;DHT22;42627;42.646;23.642;2022-08-30T00:10:41;18.70;99.90
56753;DHT22;42627;42.646;23.642;2022-08-30T00:12:42;18.70;99.90
56753;DHT22;42627;42.646;23.642;2022-08-30T00:14:43;18.70;99.90
56753;DHT22;42627;42.646;23.642;2022-08-30T00:16:44;18.60;99.90
56753;DHT22;42627;42.646;23.642;2022-08-30T00:18:45;18.70;99.90
56753;DHT22;42627;42.646;23.642;2022-08-30T00:20:47;18.70;99.90
56753;DHT22;42627;42.646;23.642;2022-08-30T00:22:49;18.60;99.90
56753;DHT22;42627;42.646;23.642;2022-08-30T00:24:50;18.70;99.90
56753;DHT22;42627;42.646;23.642;2022-08-30T00:26:50;18.70;99.90
56753;DHT22;42627;42.646;23.642;2022-08-30T00:28:51;18.70;99.90
56753;DHT22;42627;42.646;23.642;2022-08-30T00:30:52;18.60;99.90
56753;DHT22;42627;42.646;23.642;2022-08-30T00:32:53;18.60;99.90
56753;DHT22;42627;42.646;23.642;2022-08-30T00:34:55;18.50;99.90
56753;DHT22;42627;42.646;23.642;2022-08-30T00:36:55;18.50;99.90
56753;DHT22;42627;42.646;23.642;2022-08-30T00:38:56;18.50;99.90
56753;DHT22;42627;42.646;23.642;2022-08-30T00:40:57;18.40;99.90
56753;DHT22;42627;42.646;23.642;2022-08-30T00:43:00;18.40;99.90
56753;DHT22;42627;42.646;23.642;2022-08-30T00:45:23;18.40;99.90
56753;DHT22;42627;42.646;23.642;2022-08-30T00:47:24;18.40;99.90
56753;DHT22;42627;42.646;23.642;2022-08-30T00:49:25;18.30;99.90
56753;DHT22;42627;42.646;23.642;2022-08-30T00:51:27;18.20;99.90
56753;DHT22;42627;42.646;23.642;2022-08-30T00:53:34;18.30;99.90
56753;DHT22;42627;42.646;23.642;2022-08-30T00:55:36;18.30;99.90
56753;DHT22;42627;42.646;23.642;2022-08-30T00:57:36;18.30;99.90
56753;DHT22;42627;42.646;23.642;2022-08-30T00:59:38;18.30;99.90
56753;DHT22;42627;42.646;23.642;2022-08-30T01:01:39;18.30;99.90
56753;DHT22;42627;42.646;23.642;2022-08-30T01:03:40;18.30;99.90
56753;DHT22;42627;42.646;23.642;2022-08-30T01:05:42;18.40;99.90
56753;DHT22;42627;42.646;23.642;2022-08-30T01:07:43;18.30;99.90
56753;DHT22;42627;42.646;23.642;2022-08-30T01:09:45;18.30;99.90
56753;DHT22;42627;42.646;23.642;2022-08-30T01:11:47;18.30;99.90
56753;DHT22;42627;42.646;23.642;2022-08-30T01:13:49;18.30;99.90
56753;DHT22;42627;42.646;23.642;2022-08-30T01:15:52;18.30;99.90
56753;DHT22;42627;42.646;23.642;2022-08-30T01:17:53;18.30;99.90
56753;DHT22;42627;42.646;23.642;2022-08-30T01:19:59;18.30;99.90
56753;DHT22;42627;42.646;23.642;2022-08-30T01:22:09;18.20;99.90
56753;DHT22;42627;42.646;23.642;2022-08-30T01:24:17;18.20;99.90
56753;DHT22;42627;42.646;23.642;2022-08-30T01:26:18;18.20;99.90
56753;DHT22;42627;42.646;23.642;2022-08-30T01:28:23;18.10;99.90
56753;DHT22;42627;42.646;23.642;2022-08-30T01:30:24;18.10;99.90
56753;DHT22;42627;42.646;23.642;2022-08-30T01:32:27;18.20;99.90
56753;DHT22;42627;42.646;23.642;2022-08-30T01:34:28;18.20;99.90
56753;DHT22;42627;42.646;23.642;2022-08-30T01:36:29;18.20;99.90
56753;DHT22;42627;42.646;23.642;2022-08-30T01:38:34;18.20;99.90
56753;DHT22;42627;42.646;23.642;2022-08-30T01:40:35;18.20;99.90
56753;DHT22;42627;42.646;23.642;2022-08-30T01:42:36;18.20;99.90
56753;DHT22;42627;42.646;23.642;2022-08-30T01:44:38;18.20;99.90
56753;DHT22;42627;42.646;23.642;2022-08-30T01:46:44;18.20;99.90
56753;DHT22;42627;42.646;23.642;2022-08-30T01:48:46;18.20;99.90
56753;DHT22;42627;42.646;23.642;2022-08-30T01:50:47;18.20;99.90
56753;DHT22;42627;42.646;23.642;2022-08-30T01:52:47;18.30;99.90
56753;DHT22;42627;42.646;23.642;2022-08-30T01:54:48;18.30;99.90
56753;DHT22;42627;42.646;23.642;2022-08-30T01:56:49;18.30;99.90
56753;DHT22;42627;42.646;23.642;2022-08-30T01:58:50;18.30;99.90
56753;DHT22;42627;42.646;23.642;2022-08-30T02:00:51;18.30;99.90
56753;DHT22;42627;42.646;23.642;2022-08-30T02:02:52;18.20;99.90
56753;DHT22;42627;42.646;23.642;2022-08-30T02:04:54;18.30;99.90
56753;DHT22;42627;42.646;23.642;2022-08-30T02:06:55;18.40;99.90
56753;DHT22;42627;42.646;23.642;2022-08-30T02:08:56;18.40;99.90
56753;DHT22;42627;42.646;23.642;2022-08-30T02:10:56;18.40;99.90
56753;DHT22;42627;42.646;23.642;2022-08-30T02:12:59;18.40;99.90
56753;DHT22;42627;42.646;23.642;2022-08-30T02:15:00;18.30;99.90
56753;DHT22;42627;42.646;23.642;2022-08-30T02:17:01;18.30;99.90
56753;DHT22;42627;42.646;23.642;2022-08-30T02:19:02;18.30;99.90
56753;DHT22;42627;42.646;23.642;2022-08-30T02:21:04;18.30;99.90
56753;DHT22;42627;42.646;23.642;2022-08-30T02:23:05;18.40;99.90
56753;DHT22;42627;42.646;23.642;2022-08-30T02:25:06;18.30;99.90
56753;DHT22;42627;42.646;23.642;2022-08-30T02:27:07;18.30;99.90
56753;DHT22;42627;42.646;23.642;2022-08-30T02:29:07;18.30;99.90
56753;DHT22;42627;42.646;23.642;2022-08-30T02:31:09;18.20;99.90
56753;DHT22;42627;42.646;23.642;2022-08-30T02:33:10;18.20;99.90
56753;DHT22;42627;42.646;23.642;2022-08-30T02:35:10;18.20;99.90
56753;DHT22;42627;42.646;23.642;2022-08-30T02:37:12;18.20;99.90
56753;DHT22;42627;42.646;23.642;2022-08-30T02:39:13;18.20;99.90
56753;DHT22;42627;42.646;23.642;2022-08-30T02:41:14;18.20;99.90
56753;DHT22;42627;42.646;23.642;2022-08-30T02:43:15;18.30;99.90
56753;DHT22;42627;42.646;23.642;2022-08-30T02:45:16;18.20;99.90
56753;DHT22;42627;42.646;23.642;2022-08-30T02:47:17;18.20;99.90
56753;DHT22;42627;42.646;23.642;2022-08-30T02:49:18;18.20;99.90
56753;DHT22;42627;42.646;23.642;2022-08-30T02:51:18;18.20;99.90
56753;DHT22;42627;42.646;23.642;2022-08-30T02:53:19;18.20;99.90
56753;DHT22;42627;42.646;23.642;2022-08-30T02:55:21;18.20;99.90
56753;DHT22;42627;42.646;23.642;2022-08-30T02:57:22;18.20;99.90
56753;DHT22;42627;42.646;23.642;2022-08-30T02:59:23;18.30;99.90
56753;DHT22;42627;42.646;23.642;2022-08-30T03:01:24;18.30;99.90
56753;DHT22;42627;42.646;23.642;2022-08-30T03:03:25;18.40;99.90
56753;DHT22;42627;42.646;23.642;2022-08-30T03:05:25;18.40;99.90
56753;DHT22;42627;42.646;23.642;2022-08-30T03:07:26;18.40;99.90
56753;DHT22;42627;42.646;23.642;2022-08-30T03:09:27;18.40;99.90
56753;DHT22;42627;42.646;23.642;2022-08-30T03:11:28;18.40;99.90
56753;DHT22;42627;42.646;23.642;2022-08-30T03:13:29;18.40;99.90
56753;DHT22;42627;42.646;23.642;2022-08-30T03:15:30;18.30;99.90
56753;DHT22;42627;42.646;23.642;2022-08-30T03:17:31;18.30;99.90
56753;DHT22;42627;42.646;23.642;2022-08-30T03:19:32;18.20;99.90
56753;DHT22;42627;42.646;23.642;2022-08-30T03:21:36;18.20;99.90
56753;DHT22;42627;42.646;23.642;2022-08-30T03:23:36;18.10;99.90
56753;DHT22;42627;42.646;23.642;2022-08-30T03:25:37;18.10;99.90
56753;DHT22;42627;42.646;23.642;2022-08-30T03:27:39;18.20;99.90
56753;DHT22;42627;42.646;23.642;2022-08-30T03:29:39;18.20;99.90
56753;DHT22;42627;42.646;23.642;2022-08-30T03:31:41;18.10;99.90
56753;DHT22;42627;42.646;23.642;2022-08-30T03:33:42;18.10;99.90
56753;DHT22;42627;42.646;23.642;2022-08-30T03:35:43;18.10;99.90
56753;DHT22;42627;42.646;23.642;2022-08-30T03:37:44;18.10;99.90
56753;DHT22;42627;42.646;23.642;2022-08-30T03:39:45;18.20;99.90
56753;DHT22;42627;42.646;23.642;2022-08-30T03:41:46;18.10;99.90
56753;DHT22;42627;42.646;23.642;2022-08-30T03:43:47;18.20;99.90
56753;DHT22;42627;42.646;23.642;2022-08-30T03:45:48;18.20;99.90
56753;DHT22;42627;42.646;23.642;2022-08-30T03:47:49;18.10;99.90
56753;DHT22;42627;42.646;23.642;2022-08-30T03:49:50;18.10;99.90
56753;DHT22;42627;42.646;23.642;2022-08-30T03:51:50;18.00;99.90
56753;DHT22;42627;42.646;23.642;2022-08-30T03:53:51;18.10;99.90
56753;DHT22;42627;42.646;23.642;2022-08-30T03:55:52;18.00;99.90
56753;DHT22;42627;42.646;23.642;2022-08-30T03:57:53;18.00;99.90
56753;DHT22;42627;42.646;23.642;2022-08-30T03:59:54;18.10;99.90
56753;DHT22;42627;42.646;23.642;2022-08-30T04:01:55;18.00;99.90
56753;DHT22;42627;42.646;23.642;2022-08-30T04:03:55;18.00;99.90
56753;DHT22;42627;42.646;23.642;2022-08-30T04:05:56;18.00;99.90
56753;DHT22;42627;42.646;23.642;2022-08-30T04:07:57;18.00;99.90
56753;DHT22;42627;42.646;23.642;2022-08-30T04:09:58;18.00;99.90
56753;DHT22;42627;42.646;23.642;2022-08-30T04:11:58;18.00;99.90
56753;DHT22;42627;42.646;23.642;2022-08-30T04:13:59;18.10;99.90
56753;DHT22;42627;42.646;23.642;2022-08-30T04:16:00;18.00;99.90
56753;DHT22;42627;42.646;23.642;2022-08-30T04:18:01;18.10;99.90
56753;DHT22;42627;42.646;23.642;2022-08-30T04:20:05;18.10;99.90
56753;DHT22;42627;42.646;23.642;2022-08-30T04:22:06;18.10;99.90
56753;DHT22;42627;42.646;23.642;2022-08-30T04:24:06;18.20;99.90
56753;DHT22;42627;42.646;23.642;2022-08-30T04:26:07;18.20;99.90
56753;DHT22;42627;42.646;23.642;2022-08-30T04:28:08;18.20;99.90
56753;DHT22;42627;42.646;23.642;2022-08-30T04:30:10;18.20;99.90
56753;DHT22;42627;42.646;23.642;2022-08-30T04:32:12;18.20;99.90
56753;DHT22;42627;42.646;23.642;2022-08-30T04:34:13;18.10;99.90
56753;DHT22;42627;42.646;23.642;2022-08-30T04:36:14;18.10;99.90
56753;DHT22;42627;42.646;23.642;2022-08-30T04:38:16;18.20;99.90
56753;DHT22;42627;42.646;23.642;2022-08-30T04:40:16;18.20;99.90
56753;DHT22;42627;42.646;23.642;2022-08-30T04:42:17;18.20;99.90
56753;DHT22;42627;42.646;23.642;2022-08-30T04:44:18;18.20;99.90
56753;DHT22;42627;42.646;23.642;2022-08-30T04:46:19;18.30;99.90
56753;DHT22;42627;42.646;23.642;2022-08-30T04:48:20;18.30;99.90
56753;DHT22;42627;42.646;23.642;2022-08-30T04:50:24;18.30;99.90
56753;DHT22;42627;42.646;23.642;2022-08-30T04:52:25;18.30;99.90
56753;DHT22;42627;42.646;23.642;2022-08-30T04:54:26;18.40;99.90
56753;DHT22;42627;42.646;23.642;2022-08-30T04:56:27;18.40;99.90
56753;DHT22;42627;42.646;23.642;2022-08-30T04:58:28;18.40;99.90
56753;DHT22;42627;42.646;23.642;2022-08-30T05:00:29;18.40;99.90
56753;DHT22;42627;42.646;23.642;2022-08-30T05:02:31;18.50;99.90
56753;DHT22;42627;42.646;23.642;2022-08-30T05:04:31;18.50;99.90
56753;DHT22;42627;42.646;23.642;2022-08-30T05:06:32;18.50;99.90
56753;DHT22;42627;42.646;23.642;2022-08-30T05:08:33;18.50;99.90
56753;DHT22;42627;42.646;23.642;2022-08-30T05:10:40;18.50;99.90
56753;DHT22;42627;42.646;23.642;2022-08-30T05:12:41;18.60;99.90
56753;DHT22;42627;42.646;23.642;2022-08-30T05:14:42;18.60;99.90
56753;DHT22;42627;42.646;23.642;2022-08-30T05:16:43;18.60;99.90
56753;DHT22;42627;42.646;23.642;2022-08-30T05:18:46;18.60;99.90
56753;DHT22;42627;42.646;23.642;2022-08-30T05:20:47;18.60;99.90
56753;DHT22;42627;42.646;23.642;2022-08-30T05:22:48;18.50;99.90
56753;DHT22;42627;42.646;23.642;2022-08-30T05:24:51;18.50;99.90
56753;DHT22;42627;42.646;23.642;2022-08-30T05:26:52;18.50;99.90
56753;DHT22;42627;42.646;23.642;2022-08-30T05:28:53;18.50;99.90
56753;DHT22;42627;42.646;23.642;2022-08-30T05:30:54;18.50;99.90
56753;DHT22;42627;42.646;23.642;2022-08-30T05:32:55;18.50;99.90
56753;DHT22;42627;42.646;23.642;2022-08-30T05:34:57;18.50;99.90
56753;DHT22;42627;42.646;23.642;2022-08-30T05:36:58;18.50;99.90
56753;DHT22;42627;42.646;23.642;2022-08-30T05:38:58;18.50;99.90
56753;DHT22;42627;42.646;23.642;2022-08-30T05:41:00;18.50;99.90
56753;DHT22;42627;42.646;23.642;2022-08-30T05:43:00;18.60;99.90
56753;DHT22;42627;42.646;23.642;2022-08-30T05:45:03;18.60;99.90
56753;DHT22;42627;42.646;23.642;2022-08-30T05:47:04;18.60;99.90
56753;DHT22;42627;42.646;23.642;2022-08-30T05:49:06;18.60;99.90
56753;DHT22;42627;42.646;23.642;2022-08-30T05:51:19;18.60;99.90
56753;DHT22;42627;42.646;23.642;2022-08-30T05:53:20;18.60;99.90
56753;DHT22;42627;42.646;23.642;2022-08-30T05:55:21;18.70;99.90
56753;DHT22;42627;42.646;23.642;2022-08-30T05:57:21;18.70;99.90
56753;DHT22;42627;42.646;23.642;2022-08-30T05:59:22;18.70;99.90
56753;DHT22;42627;42.646;23.642;2022-08-30T06:01:29;18.70;99.90
56753;DHT22;42627;42.646;23.642;2022-08-30T06:03:31;18.80;99.90
56753;DHT22;42627;42.646;23.642;2022-08-30T06:05:32;18.80;99.90
56753;DHT22;42627;42.646;23.642;2022-08-30T06:07:33;18.90;99.90
56753;DHT22;42627;42.646;23.642;2022-08-30T06:09:34;18.90;99.90
56753;DHT22;42627;42.646;23.642;2022-08-30T06:11:35;18.90;99.90
56753;DHT22;42627;42.646;23.642;2022-08-30T06:13:36;19.00;99.90
56753;DHT22;42627;42.646;23.642;2022-08-30T06:15:37;19.10;99.90
56753;DHT22;42627;42.646;23.642;2022-08-30T06:17:38;19.10;99.90
56753;DHT22;42627;42.646;23.642;2022-08-30T06:19:39;19.10;99.90
56753;DHT22;42627;42.646;23.642;2022-08-30T06:21:41;19.10;99.90
56753;DHT22;42627;42.646;23.642;2022-08-30T06:23:43;19.20;99.90
56753;DHT22;42627;42.646;23.642;2022-08-30T06:25:44;19.10;99.90
56753;DHT22;42627;42.646;23.642;2022-08-30T06:27:44;19.20;99.90
56753;DHT22;42627;42.646;23.642;2022-08-30T06:29:45;19.20;99.90
56753;DHT22;42627;42.646;23.642;2022-08-30T06:31:50;19.20;99.90
56753;DHT22;42627;42.646;23.642;2022-08-30T06:33:51;19.20;99.90
56753;DHT22;42627;42.646;23.642;2022-08-30T06:35:52;19.20;99.90
56753;DHT22;42627;42.646;23.642;2022-08-30T06:37:53;19.30;99.90
56753;DHT22;42627;42.646;23.642;2022-08-30T06:39:56;19.30;99.90
56753;DHT22;42627;42.646;23.642;2022-08-30T06:41:56;19.40;99.90
56753;DHT22;42627;42.646;23.642;2022-08-30T06:43:59;19.40;99.90
56753;DHT22;42627;42.646;23.642;2022-08-30T06:46:02;19.40;99.90
56753;DHT22;42627;42.646;23.642;2022-08-30T06:48:03;19.50;99.90
56753;DHT22;42627;42.646;23.642;2022-08-30T06:50:04;19.40;99.90
56753;DHT22;42627;42.646;23.642;2022-08-30T06:52:05;19.60;99.90
56753;DHT22;42627;42.646;23.642;2022-08-30T06:54:07;19.60;99.90
56753;DHT22;42627;42.646;23.642;2022-08-30T06:56:09;19.60;99.90
56753;DHT22;42627;42.646;23.642;2022-08-30T06:58:11;19.60;99.90
56753;DHT22;42627;42.646;23.642;2022-08-30T07:00:14;19.60;99.90
56753;DHT22;42627;42.646;23.642;2022-08-30T07:02:15;19.60;99.90
56753;DHT22;42627;42.646;23.642;2022-08-30T07:04:16;19.60;99.90
56753;DHT22;42627;42.646;23.642;2022-08-30T07:06:18;19.60;99.90
56753;DHT22;42627;42.646;23.642;2022-08-30T07:08:19;19.50;99.90
56753;DHT22;42627;42.646;23.642;2022-08-30T07:10:20;19.50;99.90
56753;DHT22;42627;42.646;23.642;2022-08-30T07:12:21;19.50;99.90
56753;DHT22;42627;42.646;23.642;2022-08-30T07:14:22;19.50;99.90
56753;DHT22;42627;42.646;23.642;2022-08-30T07:16:23;19.50;99.90
56753;DHT22;42627;42.646;23.642;2022-08-30T07:18:24;19.50;99.90
56753;DHT22;42627;42.646;23.642;2022-08-30T07:20:45;19.50;99.90
56753;DHT22;42627;42.646;23.642;2022-08-30T07:22:46;19.50;99.90
56753;DHT22;42627;42.646;23.642;2022-08-30T07:24:48;19.50;99.90
56753;DHT22;42627;42.646;23.642;2022-08-30T07:26:49;19.60;99.90
56753;DHT22;42627;42.646;23.642;2022-08-30T07:28:52;19.50;99.90
56753;DHT22;42627;42.646;23.642;2022-08-30T07:30:53;19.50;99.90
56753;DHT22;42627;42.646;23.642;2022-08-30T07:32:53;19.60;99.90
56753;DHT22;42627;42.646;23.642;2022-08-30T07:34:54;19.50;99.90
56753;DHT22;42627;42.646;23.642;2022-08-30T07:36:55;19.50;99.90
56753;DHT22;42627;42.646;23.642;2022-08-30T07:38:56;19.50;99.90
56753;DHT22;42627;42.646;23.642;2022-08-30T07:40:56;19.60;99.90
56753;DHT22;42627;42.646;23.642;2022-08-30T07:43:00;19.60;99.90
56753;DHT22;42627;42.646;23.642;2022-08-30T07:45:01;19.60;99.90
56753;DHT22;42627;42.646;23.642;2022-08-30T07:47:02;19.50;99.90
56753;DHT22;42627;42.646;23.642;2022-08-30T07:49:03;19.40;99.90
56753;DHT22;42627;42.646;23.642;2022-08-30T07:51:09;19.40;99.90
56753;DHT22;42627;42.646;23.642;2022-08-30T07:53:13;19.40;99.90
56753;DHT22;42627;42.646;23.642;2022-08-30T07:55:17;19.40;99.90
56753;DHT22;42627;42.646;23.642;2022-08-30T07:57:17;19.40;99.90
56753;DHT22;42627;42.646;23.642;2022-08-30T07:59:18;19.40;99.90
56753;DHT22;42627;42.646;23.642;2022-08-30T08:01:21;19.50;99.90
56753;DHT22;42627;42.646;23.642;2022-08-30T08:03:22;19.50;99.90
56753;DHT22;42627;42.646;23.642;2022-08-30T08:05:22;19.50;99.90
56753;DHT22;42627;42.646;23.642;2022-08-30T08:07:24;19.50;99.90
56753;DHT22;42627;42.646;23.642;2022-08-30T08:09:25;19.50;99.90
56753;DHT22;42627;42.646;23.642;2022-08-30T08:11:26;19.60;99.90
56753;DHT22;42627;42.646;23.642;2022-08-30T08:13:27;19.60;99.90
56753;DHT22;42627;42.646;23.642;2022-08-30T08:15:28;19.60;99.90
56753;DHT22;42627;42.646;23.642;2022-08-30T08:17:28;19.70;99.90
56753;DHT22;42627;42.646;23.642;2022-08-30T08:19:29;19.70;99.90
56753;DHT22;42627;42.646;23.642;2022-08-30T08:21:30;19.70;99.90
56753;DHT22;42627;42.646;23.642;2022-08-30T08:23:31;19.70;99.90
56753;DHT22;42627;42.646;23.642;2022-08-30T08:25:32;19.70;99.90
56753;DHT22;42627;42.646;23.642;2022-08-30T08:27:37;19.80;99.90
56753;DHT22;42627;42.646;23.642;2022-08-30T08:29:37;19.80;99.90
56753;DHT22;42627;42.646;23.642;2022-08-30T08:31:39;19.80;99.90
56753;DHT22;42627;42.646;23.642;2022-08-30T08:33:40;19.80;99.90
56753;DHT22;42627;42.646;23.642;2022-08-30T08:35:41;19.80;99.90
56753;DHT22;42627;42.646;23.642;2022-08-30T08:37:42;19.70;99.90
56753;DHT22;42627;42.646;23.642;2022-08-30T08:39:43;19.70;99.90
56753;DHT22;42627;42.646;23.642;2022-08-30T08:42:06;19.70;99.90
56753;DHT22;42627;42.646;23.642;2022-08-30T08:44:14;19.80;99.90
56753;DHT22;42627;42.646;23.642;2022-08-30T08:48:33;19.70;99.90
56753;DHT22;42627;42.646;23.642;2022-08-30T08:50:35;19.70;99.90
56753;DHT22;42627;42.646;23.642;2022-08-30T08:52:46;19.70;99.90
56753;DHT22;42627;42.646;23.642;2022-08-30T08:55:10;19.70;99.90
56753;DHT22;42627;42.646;23.642;2022-08-30T08:57:12;19.60;99.90
56753;DHT22;42627;42.646;23.642;2022-08-30T08:59:15;19.60;99.90
56753;DHT22;42627;42.646;23.642;2022-08-30T09:01:20;19.50;99.90
56753;DHT22;42627;42.646;23.642;2022-08-30T09:03:27;19.40;99.90
56753;DHT22;42627;42.646;23.642;2022-08-30T09:08:21;19.20;99.90
56753;DHT22;42627;42.646;23.642;2022-08-30T09:10:59;19.20;99.90
56753;DHT22;42627;42.646;23.642;2022-08-30T09:13:12;19.10;99.90
56753;DHT22;42627;42.646;23.642;2022-08-30T09:15:48;19.10;99.90
56753;DHT22;42627;42.646;23.642;2022-08-30T09:18:05;19.00;99.90
56753;DHT22;42627;42.646;23.642;2022-08-30T09:20:30;19.00;99.90
56753;DHT22;42627;42.646;23.642;2022-08-30T09:22:45;19.00;99.90
56753;DHT22;42627;42.646;23.642;2022-08-30T09:27:53;18.90;99.90
56753;DHT22;42627;42.646;23.642;2022-08-30T09:32:32;18.90;99.90
56753;DHT22;42627;42.646;23.642;2022-08-30T09:34:51;18.80;99.90
56753;DHT22;42627;42.646;23.642;2022-08-30T09:40:08;18.80;99.90
56753;DHT22;42627;42.646;23.642;2022-08-30T09:42:32;18.80;99.90
56753;DHT22;42627;42.646;23.642;2022-08-30T09:44:44;18.80;99.90
56753;DHT22;42627;42.646;23.642;2022-08-30T09:47:38;18.90;99.90
56753;DHT22;42627;42.646;23.642;2022-08-30T09:50:20;18.80;99.90
56753;DHT22;42627;42.646;23.642;2022-08-30T10:00:04;18.80;99.90
56753;DHT22;42627;42.646;23.642;2022-08-30T10:04:52;18.90;99.90
56753;DHT22;42627;42.646;23.642;2022-08-30T10:07:09;18.90;99.90
56753;DHT22;42627;42.646;23.642;2022-08-30T10:11:42;18.90;99.90
56753;DHT22;42627;42.646;23.642;2022-08-30T10:24:05;18.80;99.90
56753;DHT22;42627;42.646;23.642;2022-08-30T10:28:55;18.80;99.90
56753;DHT22;42627;42.646;23.642;2022-08-30T10:31:14;18.80;99.90
56753;DHT22;42627;42.646;23.642;2022-08-30T10:33:24;18.90;99.90
56753;DHT22;42627;42.646;23.642;2022-08-30T10:35:52;18.90;99.90
56753;DHT22;42627;42.646;23.642;2022-08-30T10:45:47;19.00;99.90
56753;DHT22;42627;42.646;23.642;2022-08-30T10:48:33;19.10;99.90
56753;DHT22;42627;42.646;23.642;2022-08-30T10:50:47;19.20;99.90
56753;DHT22;42627;42.646;23.642;2022-08-30T10:56:14;19.20;99.90
56753;DHT22;42627;42.646;23.642;2022-08-30T10:58:32;19.20;99.90
56753;DHT22;42627;42.646;23.642;2022-08-30T11:01:05;19.30;99.90
56753;DHT22;42627;42.646;23.642;2022-08-30T11:14:59;19.40;99.90
56753;DHT22;42627;42.646;23.642;2022-08-30T11:17:39;19.50;99.90
56753;DHT22;42627;42.646;23.642;2022-08-30T11:19:43;19.50;99.90
56753;DHT22;42627;42.646;23.642;2022-08-30T11:21:45;19.50;99.90
56753;DHT22;42627;42.646;23.642;2022-08-30T11:30:46;19.50;99.90
56753;DHT22;42627;42.646;23.642;2022-08-30T11:33:03;19.50;99.90
56753;DHT22;42627;42.646;23.642;2022-08-30T11:35:04;19.50;99.90
56753;DHT22;42627;42.646;23.642;2022-08-30T11:37:06;19.50;99.90
56753;DHT22;42627;42.646;23.642;2022-08-30T11:39:11;19.50;99.90
56753;DHT22;42627;42.646;23.642;2022-08-30T11:41:35;19.60;99.90
56753;DHT22;42627;42.646;23.642;2022-08-30T11:45:43;19.60;99.90
56753;DHT22;42627;42.646;23.642;2022-08-30T11:50:11;19.70;99.90
56753;DHT22;42627;42.646;23.642;2022-08-30T11:52:41;19.70;99.90
56753;DHT22;42627;42.646;23.642;2022-08-30T11:55:01;19.80;99.90
56753;DHT22;42627;42.646;23.642;2022-08-30T12:01:55;19.90;99.90
56753;DHT22;42627;42.646;23.642;2022-08-30T12:09:10;19.90;99.90
56753;DHT22;42627;42.646;23.642;2022-08-30T12:15:59;20.00;99.90
56753;DHT22;42627;42.646;23.642;2022-08-30T12:18:44;20.10;99.90
56753;DHT22;42627;42.646;23.642;2022-08-30T12:21:07;20.10;99.90
56753;DHT22;42627;42.646;23.642;2022-08-30T12:26:19;20.20;99.90
56753;DHT22;42627;42.646;23.642;2022-08-30T12:30:51;20.30;99.90
56753;DHT22;42627;42.646;23.642;2022-08-30T12:33:03;20.30;99.90
56753;DHT22;42627;42.646;23.642;2022-08-30T12:35:31;20.40;99.90
56753;DHT22;42627;42.646;23.642;2022-08-30T12:38:03;20.40;99.90
56753;DHT22;42627;42.646;23.642;2022-08-30T12:40:16;20.50;99.90
56753;DHT22;42627;42.646;23.642;2022-08-30T12:42:21;20.50;99.90
56753;DHT22;42627;42.646;23.642;2022-08-30T12:44:25;20.50;99.90
56753;DHT22;42627;42.646;23.642;2022-08-30T12:48:58;20.60;99.90
56753;DHT22;42627;42.646;23.642;2022-08-30T12:54:18;20.70;99.90
56753;DHT22;42627;42.646;23.642;2022-08-30T12:56:48;20.80;99.90
56753;DHT22;42627;42.646;23.642;2022-08-30T12:58:55;20.80;99.90
56753;DHT22;42627;42.646;23.642;2022-08-30T13:01:26;20.90;99.90
56753;DHT22;42627;42.646;23.642;2022-08-30T13:03:37;21.00;99.90
56753;DHT22;42627;42.646;23.642;2022-08-30T13:07:44;21.10;99.90
56753;DHT22;42627;42.646;23.642;2022-08-30T13:12:28;21.30;99.90
56753;DHT22;42627;42.646;23.642;2022-08-30T13:14:44;21.40;99.90
56753;DHT22;42627;42.646;23.642;2022-08-30T13:17:27;21.50;99.90
56753;DHT22;42627;42.646;23.642;2022-08-30T13:19:37;21.60;99.90
56753;DHT22;42627;42.646;23.642;2022-08-30T13:21:50;21.70;99.90
56753;DHT22;42627;42.646;23.642;2022-08-30T13:26:37;21.80;99.90
56753;DHT22;42627;42.646;23.642;2022-08-30T13:29:21;21.90;99.90
56753;DHT22;42627;42.646;23.642;2022-08-30T13:31:28;21.90;99.90
56753;DHT22;42627;42.646;23.642;2022-08-30T13:33:52;22.00;99.90
56753;DHT22;42627;42.646;23.642;2022-08-30T13:36:12;22.10;99.80
56753;DHT22;42627;42.646;23.642;2022-08-30T13:38:44;22.20;99.90
56753;DHT22;42627;42.646;23.642;2022-08-30T13:41:03;22.30;99.90
56753;DHT22;42627;42.646;23.642;2022-08-30T13:43:16;22.40;98.30
56753;DHT22;42627;42.646;23.642;2022-08-30T13:45:40;22.40;97.40
56753;DHT22;42627;42.646;23.642;2022-08-30T13:47:44;22.40;96.10
56753;DHT22;42627;42.646;23.642;2022-08-30T13:49:53;22.50;95.10
56753;DHT22;42627;42.646;23.642;2022-08-30T13:52:08;22.60;93.40
56753;DHT22;42627;42.646;23.642;2022-08-30T13:54:12;22.70;97.00
56753;DHT22;42627;42.646;23.642;2022-08-30T13:56:13;22.80;96.10
56753;DHT22;42627;42.646;23.642;2022-08-30T13:58:26;22.90;96.50
56753;DHT22;42627;42.646;23.642;2022-08-30T14:00:30;23.00;91.80
56753;DHT22;42627;42.646;23.642;2022-08-30T14:02:49;23.00;91.30
56753;DHT22;42627;42.646;23.642;2022-08-30T14:05:12;23.00;91.20
56753;DHT22;42627;42.646;23.642;2022-08-30T14:07:25;23.00;89.70
56753;DHT22;42627;42.646;23.642;2022-08-30T14:09:49;23.00;90.80
56753;DHT22;42627;42.646;23.642;2022-08-30T14:12:38;23.00;87.90
56753;DHT22;42627;42.646;23.642;2022-08-30T14:14:59;23.00;90.50
56753;DHT22;42627;42.646;23.642;2022-08-30T14:17:27;23.00;87.70
56753;DHT22;42627;42.646;23.642;2022-08-30T14:22:08;23.00;86.70
56753;DHT22;42627;42.646;23.642;2022-08-30T14:24:22;23.00;85.50
56753;DHT22;42627;42.646;23.642;2022-08-30T14:26:49;23.00;86.10
56753;DHT22;42627;42.646;23.642;2022-08-30T14:28:58;23.00;87.20
56753;DHT22;42627;42.646;23.642;2022-08-30T14:31:07;23.00;87.60
56753;DHT22;42627;42.646;23.642;2022-08-30T14:33:34;23.10;86.70
56753;DHT22;42627;42.646;23.642;2022-08-30T14:38:24;23.10;88.30
56753;DHT22;42627;42.646;23.642;2022-08-30T14:40:48;23.20;90.10
56753;DHT22;42627;42.646;23.642;2022-08-30T14:43:11;23.20;90.40
56753;DHT22;42627;42.646;23.642;2022-08-30T14:45:22;23.20;88.20
56753;DHT22;42627;42.646;23.642;2022-08-30T14:47:23;23.30;86.90
56753;DHT22;42627;42.646;23.642;2022-08-30T14:49:24;23.40;87.10
56753;DHT22;42627;42.646;23.642;2022-08-30T14:51:25;23.40;84.70
56753;DHT22;42627;42.646;23.642;2022-08-30T14:53:25;23.40;83.20